Terminal Aerodrome Forecast
Issued by NWS

Home | Current Version | Previous Version | Text Only | Print | Product List | Glossary On
Versions: 1 2 3 4 5 6 7 8 9 10 11 12 13 14 15
283
FTUS45 KFGZ 231120
TAFPRC
TAF
KPRC 231120Z 2312/2412 20005KT P6SM SCT120
     FM232000 26009G15KT P6SM BKN090
     FM240300 VRB05KT P6SM SCT110=

USA.gov is the U.S. government's official web portal to all federal, state and local government web resources and services.